createdAt,value
2018-08-06T00:00:40.011Z,2.92
2018-08-06T00:03:08.208Z,2.92
2018-08-06T00:05:36.427Z,3.30
2018-08-06T00:08:05.164Z,2.77
2018-08-06T00:10:33.338Z,3.17
2018-08-06T00:13:01.579Z,3.27
2018-08-06T00:15:29.466Z,3.65
2018-08-06T00:17:57.532Z,3.62
2018-08-06T00:20:25.602Z,3.60
2018-08-06T00:22:54.023Z,3.65
2018-08-06T00:25:22.150Z,3.63
2018-08-06T00:27:50.226Z,3.70
2018-08-06T00:30:19.213Z,3.87
2018-08-06T00:32:48.082Z,3.93
2018-08-06T00:35:16.563Z,4.10
2018-08-06T00:37:44.739Z,3.90
2018-08-06T00:40:15.078Z,3.90
2018-08-06T00:42:43.965Z,4.00
2018-08-06T00:45:15.195Z,3.93
2018-08-06T00:47:43.694Z,3.80
2018-08-06T00:50:12.202Z,3.60
2018-08-06T00:52:40.510Z,4.03
2018-08-06T00:55:10.927Z,4.20
2018-08-06T00:57:39.291Z,4.13
2018-08-06T01:00:09.474Z,3.92
2018-08-06T01:02:37.653Z,3.63
2018-08-06T01:05:07.045Z,3.80
2018-08-06T01:07:35.135Z,4.07
2018-08-06T01:10:04.906Z,4.33
2018-08-06T01:12:33.013Z,3.90
2018-08-06T01:15:00.928Z,4.50
2018-08-06T01:17:29.086Z,4.20
2018-08-06T01:19:57.178Z,4.43
2018-08-06T01:22:25.254Z,4.43
2018-08-06T01:24:53.443Z,4.80
2018-08-06T01:27:21.522Z,4.33
2018-08-06T01:29:49.630Z,4.43
2018-08-06T01:32:17.967Z,4.70
2018-08-06T01:34:46.086Z,4.93
2018-08-06T01:37:14.166Z,4.97
2018-08-06T01:39:42.061Z,5.17
2018-08-06T01:42:10.181Z,5.40
2018-08-06T01:44:38.316Z,4.83
2018-08-06T01:47:06.482Z,5.00
2018-08-06T01:49:34.558Z,4.93
2018-08-06T01:52:02.613Z,5.07
2018-08-06T01:54:30.692Z,5.20
2018-08-06T01:56:58.771Z,5.53
2018-08-06T01:59:26.876Z,6.07
2018-08-06T02:01:54.930Z,5.22
2018-08-06T02:04:23.029Z,5.03
2018-08-06T02:06:51.150Z,4.73
2018-08-06T02:09:19.198Z,5.30
2018-08-06T02:11:47.286Z,5.37
2018-08-06T02:14:15.146Z,5.13
2018-08-06T02:16:43.211Z,5.33
2018-08-06T02:19:11.326Z,5.03
2018-08-06T02:21:39.430Z,5.00
2018-08-06T02:24:07.518Z,4.90
2018-08-06T02:26:35.598Z,5.57
2018-08-06T02:29:03.848Z,5.53
2018-08-06T02:31:31.981Z,6.15
2018-08-06T02:34:00.113Z,5.73
2018-08-06T02:36:28.214Z,5.43
2018-08-06T02:38:56.321Z,6.23
2018-08-06T02:41:24.440Z,5.93
2018-08-06T02:43:52.302Z,5.40
2018-08-06T02:46:20.265Z,5.90
2018-08-06T02:48:48.373Z,6.53
2018-08-06T02:51:16.487Z,5.43
2018-08-06T02:53:44.574Z,5.77
2018-08-06T02:56:12.662Z,5.33
2018-08-06T02:58:40.533Z,4.70
2018-08-06T03:01:08.620Z,4.83
2018-08-06T03:03:36.752Z,4.30
2018-08-06T03:06:05.478Z,5.90
2018-08-06T03:08:33.621Z,5.10
2018-08-06T03:11:01.743Z,5.10
2018-08-06T03:13:29.802Z,4.27
2018-08-06T03:15:58.046Z,4.57
2018-08-06T03:18:26.482Z,4.17
2018-08-06T03:20:54.560Z,4.30
2018-08-06T03:23:22.672Z,3.67
2018-08-06T03:25:50.743Z,3.70
2018-08-06T03:28:18.629Z,4.00
2018-08-06T03:30:46.768Z,4.20
2018-08-06T03:33:14.841Z,5.00
2018-08-06T03:35:43.209Z,4.50
2018-08-06T03:38:11.275Z,3.73
2018-08-06T03:40:39.382Z,4.33
2018-08-06T03:43:07.447Z,5.00
2018-08-06T03:45:35.611Z,5.08
2018-08-06T03:48:03.690Z,4.53
2018-08-06T03:50:31.773Z,4.30
2018-08-06T03:52:59.842Z,4.30
2018-08-06T03:55:27.962Z,4.00
2018-08-06T03:57:56.053Z,3.67
2018-08-06T04:00:24.147Z,3.83
2018-08-06T04:02:52.222Z,4.00
2018-08-06T04:05:20.326Z,4.23
2018-08-06T04:07:48.415Z,4.60
2018-08-06T04:10:17.255Z,4.27
2018-08-06T04:12:45.771Z,4.50
2018-08-06T04:15:13.967Z,4.17
2018-08-06T04:17:42.683Z,4.80
2018-08-06T04:20:11.896Z,4.47
2018-08-06T04:22:40.679Z,4.67
2018-08-06T04:25:08.762Z,4.20
2018-08-06T04:27:37.388Z,4.03
2018-08-06T04:30:07.990Z,3.73
2018-08-06T04:32:36.135Z,4.60
2018-08-06T04:35:04.358Z,4.20
2018-08-06T04:37:32.451Z,4.27
2018-08-06T04:40:00.545Z,4.43
2018-08-06T04:42:28.686Z,4.47
2018-08-06T04:44:56.818Z,4.40
2018-08-06T04:47:24.878Z,4.90
2018-08-06T04:49:52.958Z,4.77
2018-08-06T04:52:21.034Z,4.80
2018-08-06T04:54:49.128Z,5.00
2018-08-06T04:57:17.252Z,4.30
2018-08-06T04:59:45.416Z,5.08
2018-08-06T05:02:13.447Z,4.73
2018-08-06T05:04:41.522Z,4.70
2018-08-06T05:07:09.872Z,5.03
2018-08-06T05:09:38.939Z,4.23
2018-08-06T05:12:07.447Z,5.00
2018-08-06T05:14:36.066Z,4.70
2018-08-06T05:17:04.516Z,4.97
2018-08-06T05:19:32.907Z,4.67
2018-08-06T05:22:00.897Z,4.80
2018-08-06T05:24:28.988Z,4.93
2018-08-06T05:26:57.123Z,5.47
2018-08-06T05:29:25.198Z,5.23
2018-08-06T05:31:53.522Z,5.70
2018-08-06T05:34:21.644Z,5.60
2018-08-06T05:36:49.719Z,4.80
2018-08-06T05:39:17.806Z,5.60
2018-08-06T05:41:45.878Z,4.73
2018-08-06T05:44:14.289Z,5.37
2018-08-06T05:46:42.474Z,5.03
2018-08-06T05:49:10.593Z,6.20
2018-08-06T05:51:38.492Z,5.53
2018-08-06T05:54:06.623Z,5.23
2018-08-06T05:56:35.056Z,5.60
2018-08-06T05:59:03.117Z,5.13
2018-08-06T06:01:31.189Z,5.00
2018-08-06T06:03:59.308Z,5.37
2018-08-06T06:06:27.398Z,5.03
2018-08-06T06:08:55.734Z,5.53
2018-08-06T06:11:23.920Z,4.47
2018-08-06T06:13:52.016Z,4.78
2018-08-06T06:16:20.088Z,4.40
2018-08-06T06:18:48.189Z,4.50
2018-08-06T06:21:16.555Z,4.50
2018-08-06T06:23:44.518Z,4.90
2018-08-06T06:26:12.590Z,5.10
2018-08-06T06:28:40.702Z,4.57
2018-08-06T06:31:08.741Z,4.23
2018-08-06T06:33:38.091Z,4.47
2018-08-06T06:36:06.207Z,3.90
2018-08-06T06:38:34.290Z,16.27
2018-08-06T06:41:02.363Z,4.63
2018-08-06T06:43:30.467Z,4.65
2018-08-06T06:45:58.858Z,4.53
2018-08-06T06:48:26.950Z,4.55
2018-08-06T06:50:55.192Z,4.17
2018-08-06T06:53:23.298Z,4.00
2018-08-06T06:55:51.397Z,4.70
2018-08-06T06:58:19.782Z,4.37
2018-08-06T07:00:47.873Z,4.80
2018-08-06T07:03:15.942Z,3.92
2018-08-06T07:05:44.042Z,4.25
2018-08-06T07:08:12.208Z,4.10
2018-08-06T07:10:40.614Z,3.92
2018-08-06T07:13:08.763Z,3.85
2018-08-06T07:15:36.963Z,3.87
2018-08-06T07:18:05.706Z,3.30
2018-08-06T07:20:34.082Z,10.58
2018-08-06T07:23:02.176Z,3.10
2018-08-06T07:25:30.262Z,3.20
2018-08-06T07:27:58.422Z,2.98
2018-08-06T07:30:26.491Z,2.90
2018-08-06T07:32:54.605Z,3.35
2018-08-06T07:35:22.710Z,2.33
2018-08-06T07:37:50.839Z,2.85
2018-08-06T07:40:18.948Z,2.90
2018-08-06T07:42:46.873Z,2.72
2018-08-06T07:45:17.050Z,2.30
2018-08-06T07:47:45.591Z,2.90
2018-08-06T07:50:15.490Z,2.65
2018-08-06T07:52:43.690Z,2.37
2018-08-06T07:55:11.878Z,2.40
2018-08-06T07:57:40.358Z,2.60
2018-08-06T08:00:12.226Z,2.12
2018-08-06T08:02:40.421Z,2.47
2018-08-06T08:05:10.786Z,2.62
2018-08-06T08:07:39.063Z,2.62
2018-08-06T08:10:11.275Z,2.20
2018-08-06T08:12:39.609Z,2.20
2018-08-06T08:15:13.722Z,1.92
2018-08-06T08:17:42.114Z,2.58
2018-08-06T08:20:12.508Z,2.00
2018-08-06T08:22:41.107Z,1.80
2018-08-06T08:25:16.670Z,2.12
2018-08-06T08:27:44.999Z,1.87
2018-08-06T08:30:14.347Z,2.58
2018-08-06T08:32:42.434Z,2.40
2018-08-06T08:35:11.428Z,5.37
2018-08-06T08:37:39.761Z,5.03
2018-08-06T08:40:12.975Z,2.20
2018-08-06T08:42:41.338Z,1.70
2018-08-06T08:45:11.575Z,2.45
2018-08-06T08:47:40.262Z,1.87
2018-08-06T08:50:10.613Z,1.60
2018-08-06T08:52:39.282Z,1.80
2018-08-06T08:55:07.639Z,1.67
2018-08-06T08:57:36.044Z,2.12
2018-08-06T09:00:07.679Z,1.98
2018-08-06T09:02:35.788Z,1.90
2018-08-06T09:05:04.707Z,1.80
2018-08-06T09:07:32.856Z,2.30
2018-08-06T09:10:00.754Z,2.00
2018-08-06T09:12:29.264Z,2.02
2018-08-06T09:14:57.956Z,5.75
2018-08-06T09:17:26.015Z,1.95
2018-08-06T09:19:54.386Z,2.20
2018-08-06T09:22:22.750Z,2.30
2018-08-06T09:24:51.057Z,2.05
2018-08-06T09:27:19.754Z,1.62
2018-08-06T09:29:48.890Z,1.67
2018-08-06T09:32:19.631Z,2.02
2018-08-06T09:34:48.015Z,1.72
2018-08-06T09:37:16.434Z,2.00
2018-08-06T09:39:44.600Z,1.60
2018-08-06T09:42:12.682Z,1.70
2018-08-06T09:44:40.782Z,1.82
2018-08-06T09:47:08.890Z,1.67
2018-08-06T09:49:37.354Z,1.70
2018-08-06T09:52:05.438Z,1.95
2018-08-06T09:54:33.358Z,2.00
2018-08-06T09:57:01.451Z,1.87
2018-08-06T09:59:29.637Z,2.02
2018-08-06T10:01:58.702Z,1.80
2018-08-06T10:04:27.497Z,2.20
2018-08-06T10:06:56.056Z,2.72
2018-08-06T10:09:24.147Z,1.85
2018-08-06T10:11:52.250Z,1.98
2018-08-06T10:14:20.342Z,1.80
2018-08-06T10:16:48.401Z,1.67
2018-08-06T10:19:16.835Z,2.10
2018-08-06T10:21:44.797Z,1.70
2018-08-06T10:24:12.886Z,1.80
2018-08-06T10:26:42.137Z,1.70
2018-08-06T10:29:10.214Z,1.70
2018-08-06T10:31:38.718Z,1.80
2018-08-06T10:34:06.782Z,1.92
2018-08-06T10:36:34.998Z,1.90
2018-08-06T10:39:03.835Z,2.25
2018-08-06T10:41:32.098Z,2.08
2018-08-06T10:44:00.454Z,1.50
2018-08-06T10:46:28.546Z,1.62
2018-08-06T10:48:56.476Z,1.82
2018-08-06T10:51:24.552Z,1.55
2018-08-06T10:53:52.676Z,2.08
2018-08-06T10:56:20.931Z,1.90
2018-08-06T10:58:49.005Z,1.90
2018-08-06T11:01:22.166Z,1.60
2018-08-06T11:03:50.303Z,1.80
2018-08-06T11:06:18.389Z,1.65
2018-08-06T11:08:46.477Z,1.65
2018-08-06T11:11:14.584Z,1.52
2018-08-06T11:13:42.677Z,2.10
2018-08-06T11:16:10.747Z,2.10
2018-08-06T11:18:38.834Z,1.92
2018-08-06T11:21:06.905Z,1.67
2018-08-06T11:23:34.966Z,2.17
2018-08-06T11:26:03.040Z,2.00
2018-08-06T11:28:31.159Z,1.45
2018-08-06T11:30:59.182Z,1.55
2018-08-06T11:33:27.324Z,1.32
2018-08-06T11:35:55.450Z,1.80
2018-08-06T11:38:23.819Z,1.45
2018-08-06T11:40:51.882Z,1.60
2018-08-06T11:43:20.016Z,1.45
2018-08-06T11:45:48.079Z,1.32
2018-08-06T11:48:15.994Z,1.50
2018-08-06T11:50:44.402Z,1.50
2018-08-06T11:53:12.550Z,1.80
2018-08-06T11:55:40.709Z,1.47
2018-08-06T11:58:08.835Z,1.50
2018-08-06T12:00:36.910Z,1.72
2018-08-06T12:03:05.323Z,1.60
2018-08-06T12:05:33.447Z,1.70
2018-08-06T12:08:02.015Z,1.70
2018-08-06T12:10:30.079Z,1.80
2018-08-06T12:12:58.258Z,1.70
2018-08-06T12:15:26.318Z,1.80
2018-08-06T12:17:54.402Z,1.72
2018-08-06T12:20:22.508Z,1.95
2018-08-06T12:22:51.479Z,1.60
2018-08-06T12:25:19.906Z,1.80
2018-08-06T12:27:48.846Z,1.57
2018-08-06T12:30:18.876Z,1.80
2018-08-06T12:32:47.771Z,1.52
2018-08-06T12:35:16.740Z,1.55
2018-08-06T12:37:45.218Z,1.52
2018-08-06T12:40:15.530Z,1.40
2018-08-06T12:42:43.910Z,1.90
2018-08-06T12:45:12.967Z,1.90
2018-08-06T12:47:41.121Z,1.60
2018-08-06T12:50:10.799Z,2.17
2018-08-06T12:52:40.431Z,2.37
2018-08-06T12:55:10.039Z,2.08
2018-08-06T12:57:38.638Z,1.90
2018-08-06T13:00:13.204Z,1.95
2018-08-06T13:02:41.297Z,1.90
2018-08-06T13:05:09.709Z,1.80
2018-08-06T13:07:37.798Z,1.75
2018-08-06T13:10:06.366Z,1.80
2018-08-06T13:12:35.386Z,2.00
2018-08-06T13:15:03.510Z,1.70
2018-08-06T13:17:31.899Z,1.72
2018-08-06T13:20:00.700Z,1.45
2018-08-06T13:22:28.815Z,2.22
2018-08-06T13:24:57.222Z,1.85
2018-08-06T13:27:25.364Z,1.90
2018-08-06T13:29:53.442Z,2.10
2018-08-06T13:32:22.096Z,1.98
2018-08-06T13:34:50.254Z,1.80
2018-08-06T13:37:18.606Z,2.00
2018-08-06T13:39:46.720Z,1.98
2018-08-06T13:42:14.836Z,1.90
2018-08-06T13:44:43.053Z,2.12
2018-08-06T13:47:12.202Z,1.80
2018-08-06T13:49:40.286Z,1.55
2018-08-06T13:52:08.368Z,1.60
2018-08-06T13:54:36.448Z,1.92
2018-08-06T13:57:04.531Z,1.98
2018-08-06T13:59:32.680Z,1.50
2018-08-06T14:02:01.016Z,1.90
2018-08-06T14:04:29.214Z,1.72
2018-08-06T14:06:57.338Z,1.50
2018-08-06T14:09:25.384Z,2.02
2018-08-06T14:11:53.451Z,1.80
2018-08-06T14:14:21.884Z,1.92
2018-08-06T14:16:50.016Z,1.62
2018-08-06T14:19:18.049Z,1.70
2018-08-06T14:21:46.457Z,1.98
2018-08-06T14:24:14.542Z,1.90
2018-08-06T14:26:43.353Z,1.85
2018-08-06T14:29:11.486Z,1.60
2018-08-06T14:31:39.779Z,2.27
2018-08-06T14:34:07.798Z,1.82
2018-08-06T14:36:35.858Z,1.90
2018-08-06T14:39:06.504Z,1.85
2018-08-06T14:41:35.100Z,1.70
2018-08-06T14:44:04.013Z,1.90
2018-08-06T14:46:32.074Z,2.05
2018-08-06T14:49:00.146Z,1.80
2018-08-06T14:51:28.694Z,1.60
2018-08-06T14:53:56.855Z,2.17
2018-08-06T14:56:25.052Z,1.80
2018-08-06T14:58:53.114Z,1.90
2018-08-06T15:01:21.286Z,2.08
2018-08-06T15:03:49.662Z,2.10
2018-08-06T15:06:17.748Z,2.27
2018-08-06T15:08:45.810Z,2.22
2018-08-06T15:11:13.974Z,1.90
2018-08-06T15:13:42.046Z,1.67
2018-08-06T15:16:10.434Z,2.12
2018-08-06T15:18:38.523Z,1.90
2018-08-06T15:21:07.034Z,1.82
2018-08-06T15:23:35.100Z,1.95
2018-08-06T15:26:03.185Z,2.10
2018-08-06T15:28:31.538Z,2.45
2018-08-06T15:30:59.622Z,2.25
2018-08-06T15:33:27.544Z,2.30
2018-08-06T15:35:55.628Z,2.90
2018-08-06T15:38:23.710Z,2.70
2018-08-06T15:40:51.774Z,2.30
2018-08-06T15:43:19.954Z,2.05
2018-08-06T15:45:48.269Z,2.35
2018-08-06T15:48:16.368Z,2.25
2018-08-06T15:50:44.449Z,2.00
2018-08-06T15:53:12.520Z,2.20
2018-08-06T15:55:40.603Z,2.37
2018-08-06T15:58:09.077Z,2.72
2018-08-06T16:00:37.126Z,2.40
2018-08-06T16:03:06.182Z,2.45
2018-08-06T16:05:34.496Z,2.58
2018-08-06T16:08:02.406Z,2.47
2018-08-06T16:10:30.482Z,2.45
2018-08-06T16:12:59.546Z,2.92
2018-08-06T16:15:29.012Z,2.27
2018-08-06T16:17:57.192Z,2.20
2018-08-06T16:20:25.291Z,2.25
2018-08-06T16:22:53.698Z,2.50
2018-08-06T16:25:22.679Z,2.50
2018-08-06T16:27:51.980Z,2.70
2018-08-06T16:30:23.479Z,2.47
2018-08-06T16:32:51.574Z,2.42
2018-08-06T16:35:21.307Z,2.37
2018-08-06T16:37:50.236Z,2.47
2018-08-06T16:40:18.324Z,1.98
2018-08-06T16:42:46.915Z,2.17
2018-08-06T16:45:14.987Z,2.22
2018-08-06T16:47:43.156Z,2.42
2018-08-06T16:50:13.116Z,2.45
2018-08-06T16:52:41.411Z,2.25
2018-08-06T16:55:10.174Z,2.30
2018-08-06T16:57:38.296Z,2.23
2018-08-06T17:00:11.314Z,2.15
2018-08-06T17:02:39.526Z,2.08
2018-08-06T17:05:09.732Z,2.20
2018-08-06T17:07:37.894Z,2.22
2018-08-06T17:10:07.567Z,2.05
2018-08-06T17:12:36.033Z,2.20
2018-08-06T17:15:04.458Z,2.30
2018-08-06T17:17:32.559Z,2.37
2018-08-06T17:20:00.655Z,1.98
2018-08-06T17:22:28.796Z,2.30
2018-08-06T17:24:57.165Z,2.35
2018-08-06T17:27:25.247Z,2.37
2018-08-06T17:29:53.313Z,2.33
2018-08-06T17:32:21.416Z,2.08
2018-08-06T17:34:49.808Z,2.10
2018-08-06T17:37:18.208Z,1.87
2018-08-06T17:39:46.262Z,1.82
2018-08-06T17:42:14.339Z,2.17
2018-08-06T17:44:42.545Z,2.10
2018-08-06T17:47:10.865Z,2.22
2018-08-06T17:49:39.172Z,1.90
2018-08-06T17:52:07.726Z,2.15
2018-08-06T17:54:35.795Z,2.40
2018-08-06T17:57:03.645Z,2.10
2018-08-06T17:59:31.907Z,2.15
2018-08-06T18:02:00.346Z,2.17
2018-08-06T18:04:28.544Z,2.45
2018-08-06T18:06:56.616Z,2.20
2018-08-06T18:09:24.707Z,2.42
2018-08-06T18:11:52.818Z,2.25
2018-08-06T18:14:21.291Z,2.22
2018-08-06T18:16:49.624Z,2.20
2018-08-06T18:19:17.867Z,2.22
2018-08-06T18:21:46.431Z,2.52
2018-08-06T18:24:14.587Z,2.05
2018-08-06T18:26:42.694Z,2.22
2018-08-06T18:29:10.938Z,2.10
2018-08-06T18:31:39.122Z,2.05
2018-08-06T18:34:07.198Z,1.85
2018-08-06T18:36:35.267Z,2.20
2018-08-06T18:39:05.847Z,1.92
2018-08-06T18:41:33.956Z,2.55
2018-08-06T18:44:01.813Z,4.40
2018-08-06T18:46:30.954Z,6.23
2018-08-06T18:48:59.070Z,2.72
2018-08-06T18:51:27.213Z,2.00
2018-08-06T18:53:55.310Z,2.08
2018-08-06T18:56:23.385Z,2.22
2018-08-06T18:58:51.458Z,1.92
2018-08-06T19:01:19.595Z,2.33
2018-08-06T19:03:47.682Z,2.27
2018-08-06T19:06:15.856Z,2.37
2018-08-06T19:08:44.040Z,2.30
2018-08-06T19:11:12.224Z,2.25
2018-08-06T19:13:45.760Z,2.37
2018-08-06T19:16:13.827Z,2.17
2018-08-06T19:18:47.512Z,2.20
2018-08-06T19:21:16.813Z,2.27
2018-08-06T19:23:45.704Z,2.50
2018-08-06T19:26:14.091Z,2.42
2018-08-06T19:28:42.160Z,2.25
2018-08-06T19:31:15.744Z,2.15
2018-08-06T19:33:43.834Z,2.60
2018-08-06T19:36:11.890Z,2.50
2018-08-06T19:38:39.966Z,2.17
2018-08-06T19:41:08.050Z,2.62
2018-08-06T19:43:37.138Z,2.37
2018-08-06T19:46:05.714Z,2.47
2018-08-06T19:48:33.884Z,2.77
2018-08-06T19:51:01.959Z,2.52
2018-08-06T19:53:30.014Z,2.47
2018-08-06T19:56:03.632Z,2.40
2018-08-06T19:58:31.807Z,2.40
2018-08-06T20:00:59.915Z,2.67
2018-08-06T20:03:28.334Z,2.62
2018-08-06T20:05:56.431Z,2.62
2018-08-06T20:08:24.571Z,3.10
2018-08-06T20:10:54.205Z,2.35
2018-08-06T20:13:22.627Z,2.72
2018-08-06T20:15:50.756Z,2.72
2018-08-06T20:18:19.464Z,2.60
2018-08-06T20:20:47.924Z,2.92
2018-08-06T20:23:16.143Z,2.85
2018-08-06T20:25:44.351Z,2.80
2018-08-06T20:28:12.403Z,2.40
2018-08-06T20:30:40.519Z,2.70
2018-08-06T20:33:08.905Z,2.85
2018-08-06T20:35:37.539Z,2.77
2018-08-06T20:38:06.456Z,3.02
2018-08-06T20:40:34.847Z,3.02
2018-08-06T20:43:02.902Z,3.00
2018-08-06T20:45:30.982Z,2.85
2018-08-06T20:47:59.136Z,2.50
2018-08-06T20:50:27.250Z,2.65
2018-08-06T20:52:55.668Z,2.47
2018-08-06T20:55:23.520Z,3.23
2018-08-06T20:57:51.575Z,2.98
2018-08-06T21:00:21.994Z,2.80
2018-08-06T21:02:50.689Z,3.25
2018-08-06T21:05:18.910Z,2.87
2018-08-06T21:07:47.322Z,2.80
2018-08-06T21:10:16.132Z,2.95
2018-08-06T21:12:44.456Z,2.77
2018-08-06T21:15:13.506Z,2.85
2018-08-06T21:17:41.706Z,2.60
2018-08-06T21:20:12.592Z,2.72
2018-08-06T21:22:42.083Z,2.83
2018-08-06T21:25:11.042Z,3.22
2018-08-06T21:27:39.899Z,2.87
2018-08-06T21:30:10.257Z,3.40
2018-08-06T21:32:38.603Z,3.00
2018-08-06T21:35:07.087Z,3.12
2018-08-06T21:37:35.147Z,3.83
2018-08-06T21:40:03.337Z,3.47
2018-08-06T21:42:31.447Z,3.52
2018-08-06T21:44:59.606Z,3.77
2018-08-06T21:47:28.038Z,3.67
2018-08-06T21:49:56.158Z,3.45
2018-08-06T21:52:24.450Z,3.22
2018-08-06T21:54:52.538Z,3.67
2018-08-06T21:57:20.686Z,3.67
2018-08-06T21:59:49.065Z,3.58
2018-08-06T22:02:17.178Z,3.22
2018-08-06T22:04:45.306Z,3.90
2018-08-06T22:07:13.358Z,3.05
2018-08-06T22:09:41.430Z,3.58
2018-08-06T22:12:09.607Z,3.83
2018-08-06T22:14:37.714Z,3.42
2018-08-06T22:17:05.980Z,3.47
2018-08-06T22:19:34.073Z,3.92
2018-08-06T22:22:02.128Z,3.83
2018-08-06T22:24:30.364Z,3.75
2018-08-06T22:26:58.454Z,4.05
2018-08-06T22:29:26.554Z,3.62
2018-08-06T22:31:54.669Z,3.67
2018-08-06T22:34:22.703Z,3.77
2018-08-06T22:36:50.762Z,3.90
2018-08-06T22:39:18.876Z,3.90
2018-08-06T22:41:46.954Z,3.65
2018-08-06T22:44:15.020Z,3.83
2018-08-06T22:46:43.161Z,4.50
2018-08-06T22:49:11.603Z,4.58
2018-08-06T22:51:39.810Z,3.83
2018-08-06T22:54:07.928Z,3.83
2018-08-06T22:56:35.953Z,4.28
2018-08-06T22:59:04.019Z,4.08
2018-08-06T23:01:32.446Z,4.30
2018-08-06T23:04:00.494Z,4.30
2018-08-06T23:06:28.562Z,4.25
2018-08-06T23:08:56.693Z,4.35
2018-08-06T23:11:24.489Z,4.37
2018-08-06T23:13:52.563Z,4.50
2018-08-06T23:16:20.658Z,4.53
2018-08-06T23:18:48.714Z,4.20
2018-08-06T23:21:16.677Z,4.55
2018-08-06T23:23:44.746Z,4.58
2018-08-06T23:26:12.814Z,4.85
2018-08-06T23:28:40.886Z,4.28
2018-08-06T23:31:08.958Z,4.37
2018-08-06T23:33:37.030Z,4.30
2018-08-06T23:36:05.142Z,4.47
2018-08-06T23:38:33.210Z,4.87
2018-08-06T23:41:01.594Z,4.45
2018-08-06T23:43:29.658Z,4.78
2018-08-06T23:45:57.734Z,5.05
2018-08-06T23:48:25.802Z,4.62
2018-08-06T23:50:53.860Z,4.92
2018-08-06T23:53:21.931Z,4.37
2018-08-06T23:55:50.005Z,4.30
2018-08-06T23:58:18.106Z,4.45
